sensor_id;sensor_type;location;lat;lon;timestamp;pressure;altitude;pressure_sealevel;temperature;humidity
31299;BME280;17927;52.350;13.402;2023-02-21T00:01:06;100814.50;;;13.73;59.15
31299;BME280;17927;52.350;13.402;2023-02-21T00:03:50;100834.53;;;13.72;58.97
31299;BME280;17927;52.350;13.402;2023-02-21T00:06:34;100829.97;;;13.73;58.96
31299;BME280;17927;52.350;13.402;2023-02-21T00:09:18;100811.97;;;13.72;58.98
31299;BME280;17927;52.350;13.402;2023-02-21T00:12:02;100823.66;;;13.72;59.13
31299;BME280;17927;52.350;13.402;2023-02-21T00:14:46;100819.25;;;13.71;59.02
31299;BME280;17927;52.350;13.402;2023-02-21T00:17:30;100821.97;;;13.71;59.22
31299;BME280;17927;52.350;13.402;2023-02-21T00:20:14;100825.53;;;13.72;59.12
31299;BME280;17927;52.350;13.402;2023-02-21T00:22:58;100819.09;;;13.73;59.01
31299;BME280;17927;52.350;13.402;2023-02-21T00:25:42;100820.13;;;13.72;59.29
31299;BME280;17927;52.350;13.402;2023-02-21T00:28:26;100823.53;;;13.74;59.25
31299;BME280;17927;52.350;13.402;2023-02-21T00:31:10;100807.22;;;13.74;59.33
31299;BME280;17927;52.350;13.402;2023-02-21T00:33:54;100818.09;;;13.74;59.29
31299;BME280;17927;52.350;13.402;2023-02-21T00:36:38;100811.66;;;13.75;59.32
31299;BME280;17927;52.350;13.402;2023-02-21T00:39:22;100807.22;;;13.74;59.21
31299;BME280;17927;52.350;13.402;2023-02-21T00:42:06;100802.81;;;13.73;59.40
31299;BME280;17927;52.350;13.402;2023-02-21T00:44:49;100802.81;;;13.73;59.53
31299;BME280;17927;52.350;13.402;2023-02-21T00:47:34;100797.38;;;13.73;59.44
31299;BME280;17927;52.350;13.402;2023-02-21T00:50:17;100790.25;;;13.72;59.70
31299;BME280;17927;52.350;13.402;2023-02-21T00:53:01;100790.56;;;13.68;59.75
31299;BME280;17927;52.350;13.402;2023-02-21T00:55:45;100785.16;;;13.68;59.78
31299;BME280;17927;52.350;13.402;2023-02-21T00:58:29;100788.88;;;13.67;60.05
31299;BME280;17927;52.350;13.402;2023-02-21T01:01:13;100791.75;;;13.66;60.12
31299;BME280;17927;52.350;13.402;2023-02-21T01:03:58;100798.19;;;13.65;60.16
31299;BME280;17927;52.350;13.402;2023-02-21T01:06:42;100799.03;;;13.65;60.01
31299;BME280;17927;52.350;13.402;2023-02-21T01:09:26;100778.34;;;13.64;59.98
31299;BME280;17927;52.350;13.402;2023-02-21T01:12:10;100784.63;;;13.65;60.12
31299;BME280;17927;52.350;13.402;2023-02-21T01:14:54;100789.03;;;13.66;60.20
31299;BME280;17927;52.350;13.402;2023-02-21T01:17:38;100765.44;;;13.66;60.17
31299;BME280;17927;52.350;13.402;2023-02-21T01:20:21;100765.31;;;13.68;60.27
31299;BME280;17927;52.350;13.402;2023-02-21T01:23:05;100770.03;;;13.66;60.32
31299;BME280;17927;52.350;13.402;2023-02-21T01:25:50;100767.16;;;13.67;60.27
31299;BME280;17927;52.350;13.402;2023-02-21T01:28:34;100763.59;;;13.67;60.31
31299;BME280;17927;52.350;13.402;2023-02-21T01:31:19;100767.16;;;13.67;60.23
31299;BME280;17927;52.350;13.402;2023-02-21T01:34:03;100751.72;;;13.68;60.31
31299;BME280;17927;52.350;13.402;2023-02-21T01:36:48;100754.59;;;13.66;60.33
31299;BME280;17927;52.350;13.402;2023-02-21T01:39:32;100758.19;;;13.67;60.38
31299;BME280;17927;52.350;13.402;2023-02-21T01:42:16;100758.19;;;13.67;60.62
31299;BME280;17927;52.350;13.402;2023-02-21T01:48:08;100765.31;;;13.68;60.39
31299;BME280;17927;52.350;13.402;2023-02-21T01:50:52;100756.81;;;13.71;60.46
31299;BME280;17927;52.350;13.402;2023-02-21T01:53:38;100738.50;;;13.73;60.36
31299;BME280;17927;52.350;13.402;2023-02-21T01:56:22;100744.78;;;13.74;60.35
31299;BME280;17927;52.350;13.402;2023-02-21T01:59:06;100750.91;;;13.76;60.30
31299;BME280;17927;52.350;13.402;2023-02-21T02:01:54;100758.72;;;13.79;60.25
31299;BME280;17927;52.350;13.402;2023-02-21T02:04:41;100745.31;;;13.77;60.39
31299;BME280;17927;52.350;13.402;2023-02-21T02:07:26;100739.69;;;13.79;60.15
31299;BME280;17927;52.350;13.402;2023-02-21T02:10:10;100734.13;;;13.80;60.13
31299;BME280;17927;52.350;13.402;2023-02-21T02:16:02;100740.25;;;13.82;60.00
31299;BME280;17927;52.350;13.402;2023-02-21T02:21:41;100728.88;;;13.87;60.18
31299;BME280;17927;52.350;13.402;2023-02-21T02:24:31;100733.31;;;13.88;60.12
31299;BME280;17927;52.350;13.402;2023-02-21T02:27:19;100741.13;;;13.91;59.94
31299;BME280;17927;52.350;13.402;2023-02-21T02:33:17;100724.84;;;13.91;60.01
31299;BME280;17927;52.350;13.402;2023-02-21T02:35:48;100728.19;;;13.77;60.39
31299;BME280;17927;52.350;13.402;2023-02-21T02:38:17;100727.50;;;13.83;60.81
31299;BME280;17927;52.350;13.402;2023-02-21T02:40:59;100727.53;;;13.91;59.97
31299;BME280;17927;52.350;13.402;2023-02-21T02:43:41;100723.63;;;13.94;60.21
31299;BME280;17927;52.350;13.402;2023-02-21T02:46:14;100718.03;;;13.95;59.96
31299;BME280;17927;52.350;13.402;2023-02-21T02:48:45;100715.00;;;13.98;60.12
31299;BME280;17927;52.350;13.402;2023-02-21T02:51:13;100713.13;;;13.99;60.00
31299;BME280;17927;52.350;13.402;2023-02-21T02:53:40;100728.25;;;14.01;59.92
31299;BME280;17927;52.350;13.402;2023-02-21T02:56:08;100719.75;;;14.05;60.01
31299;BME280;17927;52.350;13.402;2023-02-21T03:01:30;100706.69;;;14.08;60.01
31299;BME280;17927;52.350;13.402;2023-02-21T03:07:20;100714.16;;;14.06;60.05
31299;BME280;17927;52.350;13.402;2023-02-21T03:10:11;100720.44;;;14.07;60.10
31299;BME280;17927;52.350;13.402;2023-02-21T03:12:53;100718.56;;;14.07;59.87
31299;BME280;17927;52.350;13.402;2023-02-21T03:15:27;100702.97;;;14.09;60.13
31299;BME280;17927;52.350;13.402;2023-02-21T03:18:20;100707.88;;;14.14;59.77
31299;BME280;17927;52.350;13.402;2023-02-21T03:20:53;100698.03;;;14.13;59.83
31299;BME280;17927;52.350;13.402;2023-02-21T03:23:21;100728.78;;;14.13;59.89
31299;BME280;17927;52.350;13.402;2023-02-21T03:25:48;100708.56;;;14.16;59.67
31299;BME280;17927;52.350;13.402;2023-02-21T03:28:14;100719.09;;;14.19;59.69
31299;BME280;17927;52.350;13.402;2023-02-21T03:30:41;100717.06;;;14.21;59.54
31299;BME280;17927;52.350;13.402;2023-02-21T03:33:07;100689.03;;;14.21;59.45
31299;BME280;17927;52.350;13.402;2023-02-21T03:35:32;100691.63;;;14.22;59.52
31299;BME280;17927;52.350;13.402;2023-02-21T03:37:58;100708.75;;;14.23;59.49
31299;BME280;17927;52.350;13.402;2023-02-21T03:40:25;100707.72;;;14.24;59.54
31299;BME280;17927;52.350;13.402;2023-02-21T03:42:52;100710.94;;;14.27;59.53
31299;BME280;17927;52.350;13.402;2023-02-21T03:45:17;100713.66;;;14.27;59.65
31299;BME280;17927;52.350;13.402;2023-02-21T03:47:43;100700.09;;;14.27;59.48
31299;BME280;17927;52.350;13.402;2023-02-21T03:50:08;100700.09;;;14.27;59.54
31299;BME280;17927;52.350;13.402;2023-02-21T03:52:33;100691.94;;;14.27;59.59
31299;BME280;17927;52.350;13.402;2023-02-21T03:54:59;100696.34;;;14.28;59.25
31299;BME280;17927;52.350;13.402;2023-02-21T03:57:25;100702.66;;;14.29;59.59
31299;BME280;17927;52.350;13.402;2023-02-21T03:59:50;100703.50;;;14.29;59.56
31299;BME280;17927;52.350;13.402;2023-02-21T04:02:15;100713.53;;;14.29;59.48
31299;BME280;17927;52.350;13.402;2023-02-21T04:04:41;100690.91;;;14.28;59.63
31299;BME280;17927;52.350;13.402;2023-02-21T04:07:06;100696.34;;;14.28;59.49
31299;BME280;17927;52.350;13.402;2023-02-21T04:09:31;100704.50;;;14.28;59.45
31299;BME280;17927;52.350;13.402;2023-02-21T04:11:57;100704.50;;;14.28;59.51
31299;BME280;17927;52.350;13.402;2023-02-21T04:14:22;100696.34;;;14.28;59.48
31299;BME280;17927;52.350;13.402;2023-02-21T04:16:47;100711.50;;;14.31;59.39
31299;BME280;17927;52.350;13.402;2023-02-21T04:19:12;100711.50;;;14.31;59.39
31299;BME280;17927;52.350;13.402;2023-02-21T04:21:38;100713.19;;;14.32;59.37
31299;BME280;17927;52.350;13.402;2023-02-21T04:24:03;100724.06;;;14.32;59.34
31299;BME280;17927;52.350;13.402;2023-02-21T04:26:28;100731.84;;;14.35;59.51
31299;BME280;17927;52.350;13.402;2023-02-21T04:28:54;100733.56;;;14.36;59.36
31299;BME280;17927;52.350;13.402;2023-02-21T04:31:21;100736.81;;;14.40;59.57
31299;BME280;17927;52.350;13.402;2023-02-21T04:33:46;100732.38;;;14.39;59.25
31299;BME280;17927;52.350;13.402;2023-02-21T04:36:12;100741.19;;;14.41;59.30
31299;BME280;17927;52.350;13.402;2023-02-21T04:38:37;100739.34;;;14.41;59.40
31299;BME280;17927;52.350;13.402;2023-02-21T04:41:03;100741.19;;;14.41;59.34
31299;BME280;17927;52.350;13.402;2023-02-21T04:43:29;100736.44;;;14.43;59.25
31299;BME280;17927;52.350;13.402;2023-02-21T04:45:54;100738.47;;;14.41;59.49
31299;BME280;17927;52.350;13.402;2023-02-21T04:48:20;100744.78;;;14.41;59.34
31299;BME280;17927;52.350;13.402;2023-02-21T04:50:45;100736.81;;;14.40;59.13
31299;BME280;17927;52.350;13.402;2023-02-21T04:53:10;100748.50;;;14.40;59.49
31299;BME280;17927;52.350;13.402;2023-02-21T04:55:35;100735.09;;;14.39;59.50
31299;BME280;17927;52.350;13.402;2023-02-21T04:58:01;100738.66;;;14.39;59.37
31299;BME280;17927;52.350;13.402;2023-02-21T05:00:26;100746.81;;;14.39;59.64
31299;BME280;17927;52.350;13.402;2023-02-21T05:02:51;100736.13;;;14.38;59.51
31299;BME280;17927;52.350;13.402;2023-02-21T05:05:16;100745.97;;;14.39;59.65
31299;BME280;17927;52.350;13.402;2023-02-21T05:07:42;100748.00;;;14.37;59.57
31299;BME280;17927;52.350;13.402;2023-02-21T05:10:08;100744.59;;;14.35;59.56
31299;BME280;17927;52.350;13.402;2023-02-21T05:12:34;100733.72;;;14.35;59.61
31299;BME280;17927;52.350;13.402;2023-02-21T05:15:01;100740.38;;;14.32;59.79
31299;BME280;17927;52.350;13.402;2023-02-21T05:17:26;100741.53;;;14.29;59.96
31299;BME280;17927;52.350;13.402;2023-02-21T05:19:52;100743.41;;;14.29;60.18
31299;BME280;17927;52.350;13.402;2023-02-21T05:22:19;100754.44;;;14.27;59.86
31299;BME280;17927;52.350;13.402;2023-02-21T05:24:45;100758.16;;;14.26;60.02
31299;BME280;17927;52.350;13.402;2023-02-21T05:27:11;100763.59;;;14.26;60.18
31299;BME280;17927;52.350;13.402;2023-02-21T05:29:49;100760.22;;;14.24;60.28
31299;BME280;17927;52.350;13.402;2023-02-21T05:32:16;100766.66;;;14.23;60.26
31299;BME280;17927;52.350;13.402;2023-02-21T05:34:42;100760.38;;;14.23;60.30
31299;BME280;17927;52.350;13.402;2023-02-21T05:37:14;100762.25;;;14.22;60.48
31299;BME280;17927;52.350;13.402;2023-02-21T05:39:40;100755.81;;;14.23;60.63
31299;BME280;17927;52.350;13.402;2023-02-21T05:42:05;100758.16;;;14.26;60.51
31299;BME280;17927;52.350;13.402;2023-02-21T05:44:31;100758.84;;;14.28;60.42
31299;BME280;17927;52.350;13.402;2023-02-21T05:46:57;100764.28;;;14.28;60.56
31299;BME280;17927;52.350;13.402;2023-02-21T05:49:22;100761.56;;;14.28;60.52
31299;BME280;17927;52.350;13.402;2023-02-21T05:51:47;100766.31;;;14.26;60.61
31299;BME280;17927;52.350;13.402;2023-02-21T05:54:18;100765.47;;;14.26;60.47
31299;BME280;17927;52.350;13.402;2023-02-21T05:56:45;100762.06;;;14.24;60.74
31299;BME280;17927;52.350;13.402;2023-02-21T05:59:11;100768.53;;;14.23;60.23
31299;BME280;17927;52.350;13.402;2023-02-21T06:01:37;100769.38;;;14.23;60.64
31299;BME280;17927;52.350;13.402;2023-02-21T06:04:02;100768.69;;;14.21;60.64
31299;BME280;17927;52.350;13.402;2023-02-21T06:06:29;100773.94;;;14.23;60.72
31299;BME280;17927;52.350;13.402;2023-02-21T06:08:54;100781.25;;;14.22;60.79
31299;BME280;17927;52.350;13.402;2023-02-21T06:11:24;100781.25;;;14.22;60.60
31299;BME280;17927;52.350;13.402;2023-02-21T06:13:51;100786.69;;;14.22;60.78
31299;BME280;17927;52.350;13.402;2023-02-21T06:16:17;100778.69;;;14.21;60.92
31299;BME280;17927;52.350;13.402;2023-02-21T06:18:42;100781.75;;;14.18;60.85
31299;BME280;17927;52.350;13.402;2023-02-21T06:21:08;100787.34;;;14.16;60.87
31299;BME280;17927;52.350;13.402;2023-02-21T06:23:33;100792.97;;;14.14;60.98
31299;BME280;17927;52.350;13.402;2023-02-21T06:25:58;100796.69;;;14.13;60.93
31299;BME280;17927;52.350;13.402;2023-02-21T06:28:30;100795.69;;;14.14;61.21
31299;BME280;17927;52.350;13.402;2023-02-21T06:30:56;100802.97;;;14.14;61.11
31299;BME280;17927;52.350;13.402;2023-02-21T06:33:22;100809.41;;;14.13;61.08
31299;BME280;17927;52.350;13.402;2023-02-21T06:35:47;100806.69;;;14.13;61.27
31299;BME280;17927;52.350;13.402;2023-02-21T06:38:12;100810.41;;;14.12;61.11
31299;BME280;17927;52.350;13.402;2023-02-21T06:40:37;100815.84;;;14.12;61.21
31299;BME280;17927;52.350;13.402;2023-02-21T06:43:03;100816.88;;;14.11;61.38
31299;BME280;17927;52.350;13.402;2023-02-21T06:45:28;100829.59;;;14.10;61.45
31299;BME280;17927;52.350;13.402;2023-02-21T06:47:53;100836.88;;;14.10;61.48
31299;BME280;17927;52.350;13.402;2023-02-21T06:50:18;100835.88;;;14.11;61.47
31299;BME280;17927;52.350;13.402;2023-02-21T06:52:44;100841.50;;;14.09;61.53
31299;BME280;17927;52.350;13.402;2023-02-21T06:55:09;100846.09;;;14.09;61.43
31299;BME280;17927;52.350;13.402;2023-02-21T06:57:34;100846.09;;;14.09;61.46
31299;BME280;17927;52.350;13.402;2023-02-21T06:59:59;100856.09;;;14.08;61.61
31299;BME280;17927;52.350;13.402;2023-02-21T07:02:25;100854.38;;;14.07;61.76
31299;BME280;17927;52.350;13.402;2023-02-21T07:04:50;100861.69;;;14.07;61.68
31299;BME280;17927;52.350;13.402;2023-02-21T07:07:15;100858.78;;;14.08;61.70
31299;BME280;17927;52.350;13.402;2023-02-21T07:09:41;100869.50;;;14.10;61.83
31299;BME280;17927;52.350;13.402;2023-02-21T07:12:06;100876.63;;;14.11;61.82
31299;BME280;17927;52.350;13.402;2023-02-21T07:14:33;100873.91;;;14.11;61.85
31299;BME280;17927;52.350;13.402;2023-02-21T07:16:58;100880.34;;;14.10;61.84
31299;BME280;17927;52.350;13.402;2023-02-21T07:19:23;100883.06;;;14.10;61.83
31299;BME280;17927;52.350;13.402;2023-02-21T07:21:49;100886.81;;;14.09;61.87
31299;BME280;17927;52.350;13.402;2023-02-21T07:24:14;100897.34;;;14.12;62.11
31299;BME280;17927;52.350;13.402;2023-02-21T07:26:39;100899.22;;;14.11;61.99
31299;BME280;17927;52.350;13.402;2023-02-21T07:29:05;100902.63;;;14.13;62.19
31299;BME280;17927;52.350;13.402;2023-02-21T07:31:30;100910.59;;;14.15;62.17
31299;BME280;17927;52.350;13.402;2023-02-21T07:33:56;100901.63;;;14.14;61.99
31299;BME280;17927;52.350;13.402;2023-02-21T07:36:21;100907.91;;;14.15;62.06
31299;BME280;17927;52.350;13.402;2023-02-21T07:38:47;100914.19;;;14.15;62.16
31299;BME280;17927;52.350;13.402;2023-02-21T07:41:13;100919.44;;;14.17;62.19
31299;BME280;17927;52.350;13.402;2023-02-21T07:43:39;100918.44;;;14.18;62.13
31299;BME280;17927;52.350;13.402;2023-02-21T07:46:08;100921.16;;;14.18;62.29
31299;BME280;17927;52.350;13.402;2023-02-21T07:48:34;100908.41;;;14.19;62.16
31299;BME280;17927;52.350;13.402;2023-02-21T07:50:59;100921.16;;;14.18;62.24
31299;BME280;17927;52.350;13.402;2023-02-21T07:53:24;100925.56;;;14.19;62.19
31299;BME280;17927;52.350;13.402;2023-02-21T07:55:49;100923.00;;;14.18;62.13
31299;BME280;17927;52.350;13.402;2023-02-21T07:58:15;100927.44;;;14.19;62.22
31299;BME280;17927;52.350;13.402;2023-02-21T08:00:40;100927.28;;;14.20;62.02
31299;BME280;17927;52.350;13.402;2023-02-21T08:03:05;100939.16;;;14.19;62.09
31299;BME280;17927;52.350;13.402;2023-02-21T08:05:30;100937.28;;;14.20;62.30
31299;BME280;17927;52.350;13.402;2023-02-21T08:07:56;100941.88;;;14.19;62.18
31299;BME280;17927;52.350;13.402;2023-02-21T08:10:25;100939.16;;;14.19;62.26
31299;BME280;17927;52.350;13.402;2023-02-21T08:12:51;100954.44;;;14.20;62.24
31299;BME280;17927;52.350;13.402;2023-02-21T08:15:16;100951.56;;;14.22;62.22
31299;BME280;17927;52.350;13.402;2023-02-21T08:17:42;100956.16;;;14.21;62.21
31299;BME280;17927;52.350;13.402;2023-02-21T08:20:08;100956.16;;;14.21;62.14
31299;BME280;17927;52.350;13.402;2023-02-21T08:22:35;100961.72;;;14.20;62.01
31299;BME280;17927;52.350;13.402;2023-02-21T08:25:01;100965.31;;;14.20;62.08
31299;BME280;17927;52.350;13.402;2023-02-21T08:27:26;100972.47;;;14.21;62.07
31299;BME280;17927;52.350;13.402;2023-02-21T08:29:51;100970.44;;;14.23;62.19
31299;BME280;17927;52.350;13.402;2023-02-21T08:32:17;100966.34;;;14.27;62.34
31299;BME280;17927;52.350;13.402;2023-02-21T08:34:44;100973.19;;;14.31;62.36
31299;BME280;17927;52.350;13.402;2023-02-21T08:37:09;100980.69;;;14.38;62.59
31299;BME280;17927;52.350;13.402;2023-02-21T08:39:44;100973.56;;;14.45;62.59
31299;BME280;17927;52.350;13.402;2023-02-21T08:42:10;100981.09;;;14.51;62.74
31299;BME280;17927;52.350;13.402;2023-02-21T08:44:35;100984.00;;;14.58;62.66
31299;BME280;17927;52.350;13.402;2023-02-21T08:47:01;100983.31;;;14.64;62.70
31299;BME280;17927;52.350;13.402;2023-02-21T08:49:26;100973.88;;;14.68;62.45
31299;BME280;17927;52.350;13.402;2023-02-21T08:51:51;100984.59;;;14.70;62.10
31299;BME280;17927;52.350;13.402;2023-02-21T08:54:19;100965.38;;;14.71;61.70
31299;BME280;17927;52.350;13.402;2023-02-21T08:56:44;100981.69;;;14.71;61.40
31299;BME280;17927;52.350;13.402;2023-02-21T08:59:09;100974.56;;;14.70;61.12
31299;BME280;17927;52.350;13.402;2023-02-21T09:01:35;100987.31;;;14.70;60.81
31299;BME280;17927;52.350;13.402;2023-02-21T09:04:02;100976.44;;;14.70;60.63
31299;BME280;17927;52.350;13.402;2023-02-21T09:06:27;100987.13;;;14.71;60.75
31299;BME280;17927;52.350;13.402;2023-02-21T09:08:53;100980.00;;;14.70;60.70
31299;BME280;17927;52.350;13.402;2023-02-21T09:11:18;100990.69;;;14.72;60.46
31299;BME280;17927;52.350;13.402;2023-02-21T09:13:43;100987.97;;;14.72;60.47
31299;BME280;17927;52.350;13.402;2023-02-21T09:16:08;100984.41;;;14.71;60.35
31299;BME280;17927;52.350;13.402;2023-02-21T09:18:34;100991.56;;;14.72;60.35
31299;BME280;17927;52.350;13.402;2023-02-21T09:20:59;100996.13;;;14.72;60.41
31299;BME280;17927;52.350;13.402;2023-02-21T09:23:26;100997.00;;;14.72;60.35
31299;BME280;17927;52.350;13.402;2023-02-21T09:25:52;101004.16;;;14.73;60.35
31299;BME280;17927;52.350;13.402;2023-02-21T09:28:18;101012.13;;;14.75;60.31
31299;BME280;17927;52.350;13.402;2023-02-21T09:30:43;101000.94;;;14.78;60.60
31299;BME280;17927;52.350;13.402;2023-02-21T09:33:09;101005.88;;;14.83;60.69
31299;BME280;17927;52.350;13.402;2023-02-21T09:35:35;101005.34;;;14.87;60.75
31299;BME280;17927;52.350;13.402;2023-02-21T09:38:01;101006.59;;;14.93;61.15
31299;BME280;17927;52.350;13.402;2023-02-21T09:40:40;101004.38;;;14.97;60.65
31299;BME280;17927;52.350;13.402;2023-02-21T09:43:11;101009.31;;;15.01;60.60
31299;BME280;17927;52.350;13.402;2023-02-21T09:45:40;101011.53;;;15.06;60.65
31299;BME280;17927;52.350;13.402;2023-02-21T09:48:10;101007.16;;;15.13;60.33
31299;BME280;17927;52.350;13.402;2023-02-21T09:50:45;101006.81;;;15.16;60.06
31299;BME280;17927;52.350;13.402;2023-02-21T09:53:19;101011.75;;;15.21;59.95
31299;BME280;17927;52.350;13.402;2023-02-21T09:55:47;101025.88;;;15.25;59.71
31299;BME280;17927;52.350;13.402;2023-02-21T09:58:16;101021.81;;;15.29;59.53
31299;BME280;17927;52.350;13.402;2023-02-21T10:00:42;101003.78;;;15.36;59.58
31299;BME280;17927;52.350;13.402;2023-02-21T10:03:25;101019.44;;;15.42;59.65
31299;BME280;17927;52.350;13.402;2023-02-21T10:06:21;101024.22;;;15.48;59.37
31299;BME280;17927;52.350;13.402;2023-02-21T10:08:58;101027.59;;;15.50;59.50
31299;BME280;17927;52.350;13.402;2023-02-21T10:11:40;101028.13;;;15.54;59.04
31299;BME280;17927;52.350;13.402;2023-02-21T10:17:00;101025.03;;;15.57;58.91
31299;BME280;17927;52.350;13.402;2023-02-21T10:19:33;101024.91;;;15.59;58.94
31299;BME280;17927;52.350;13.402;2023-02-21T10:22:03;101033.75;;;15.61;58.90
31299;BME280;17927;52.350;13.402;2023-02-21T10:24:36;101029.81;;;15.63;58.93
31299;BME280;17927;52.350;13.402;2023-02-21T10:27:04;101030.34;;;15.67;58.92
31299;BME280;17927;52.350;13.402;2023-02-21T10:29:53;101030.69;;;15.72;58.64
31299;BME280;17927;52.350;13.402;2023-02-21T10:32:20;101041.06;;;15.77;58.83
31299;BME280;17927;52.350;13.402;2023-02-21T10:34:46;101027.47;;;15.85;58.65
31299;BME280;17927;52.350;13.402;2023-02-21T10:37:43;101043.66;;;15.95;58.53
31299;BME280;17927;52.350;13.402;2023-02-21T10:40:37;101037.50;;;16.01;58.50
31299;BME280;17927;52.350;13.402;2023-02-21T10:43:16;101036.50;;;16.10;58.90
31299;BME280;17927;52.350;13.402;2023-02-21T10:46:12;101035.25;;;16.21;58.97
31299;BME280;17927;52.350;13.402;2023-02-21T10:48:42;101035.25;;;16.29;59.05
31299;BME280;17927;52.350;13.402;2023-02-21T10:51:13;101035.38;;;16.44;58.80
31299;BME280;17927;52.350;13.402;2023-02-21T10:53:40;101042.03;;;16.42;59.17
31299;BME280;17927;52.350;13.402;2023-02-21T10:58:48;101036.81;;;16.72;58.10
31299;BME280;17927;52.350;13.402;2023-02-21T11:01:21;101031.16;;;16.82;57.77
31299;BME280;17927;52.350;13.402;2023-02-21T11:03:59;101037.78;;;16.87;57.01
31299;BME280;17927;52.350;13.402;2023-02-21T11:06:34;101036.19;;;16.93;56.14
31299;BME280;17927;52.350;13.402;2023-02-21T11:09:00;101049.53;;;16.96;55.93
31299;BME280;17927;52.350;13.402;2023-02-21T11:11:35;101041.34;;;16.96;54.81
31299;BME280;17927;52.350;13.402;2023-02-21T11:14:22;101038.94;;;16.93;54.38
31299;BME280;17927;52.350;13.402;2023-02-21T11:17:15;101042.19;;;16.88;53.98
31299;BME280;17927;52.350;13.402;2023-02-21T11:22:14;101035.91;;;16.88;54.44
31299;BME280;17927;52.350;13.402;2023-02-21T11:24:58;101046.28;;;16.93;53.90
31299;BME280;17927;52.350;13.402;2023-02-21T11:27:26;101048.13;;;16.92;53.99
31299;BME280;17927;52.350;13.402;2023-02-21T11:29:52;101035.88;;;16.96;53.41
31299;BME280;17927;52.350;13.402;2023-02-21T11:32:24;101040.31;;;16.97;53.21
31299;BME280;17927;52.350;13.402;2023-02-21T11:34:50;101045.78;;;16.97;53.19
31299;BME280;17927;52.350;13.402;2023-02-21T11:37:16;101045.59;;;16.99;52.69
31299;BME280;17927;52.350;13.402;2023-02-21T11:39:49;101042.03;;;16.98;52.26
31299;BME280;17927;52.350;13.402;2023-02-21T11:42:32;101034.03;;;16.97;52.40
31299;BME280;17927;52.350;13.402;2023-02-21T11:45:23;101043.88;;;16.98;52.64
31299;BME280;17927;52.350;13.402;2023-02-21T11:48:01;101045.78;;;16.97;52.79
31299;BME280;17927;52.350;13.402;2023-02-21T11:50:33;101056.50;;;16.99;52.44
31299;BME280;17927;52.350;13.402;2023-02-21T11:53:22;101043.72;;;16.99;52.67
31299;BME280;17927;52.350;13.402;2023-02-21T11:55:55;101049.34;;;16.98;52.50
31299;BME280;17927;52.350;13.402;2023-02-21T11:58:40;101048.16;;;17.00;52.47
31299;BME280;17927;52.350;13.402;2023-02-21T12:01:12;101036.56;;;16.98;52.45
31299;BME280;17927;52.350;13.402;2023-02-21T12:03:58;101035.34;;;17.01;52.46
31299;BME280;17927;52.350;13.402;2023-02-21T12:06:52;101046.09;;;17.02;52.85
31299;BME280;17927;52.350;13.402;2023-02-21T12:18:06;101042.34;;;17.03;52.37
31299;BME280;17927;52.350;13.402;2023-02-21T12:26:04;101051.53;;;16.94;51.31
31299;BME280;17927;52.350;13.402;2023-02-21T12:34:41;101035.22;;;16.86;51.46
31299;BME280;17927;52.350;13.402;2023-02-21T12:37:28;101027.03;;;16.86;51.52
31299;BME280;17927;52.350;13.402;2023-02-21T12:48:30;101036.94;;;16.87;51.31
31299;BME280;17927;52.350;13.402;2023-02-21T12:51:01;101049.91;;;16.85;51.44
31299;BME280;17927;52.350;13.402;2023-02-21T12:53:36;101040.69;;;16.86;51.53
31299;BME280;17927;52.350;13.402;2023-02-21T12:56:16;101041.53;;;16.86;51.35
31299;BME280;17927;52.350;13.402;2023-02-21T12:58:49;101045.28;;;16.85;51.31
31299;BME280;17927;52.350;13.402;2023-02-21T13:01:20;101046.13;;;16.86;51.08
31299;BME280;17927;52.350;13.402;2023-02-21T13:03:50;101047.84;;;16.87;50.79
31299;BME280;17927;52.350;13.402;2023-02-21T13:06:35;101034.50;;;16.92;50.92
31299;BME280;17927;52.350;13.402;2023-02-21T13:14:13;101043.38;;;17.02;50.07
31299;BME280;17927;52.350;13.402;2023-02-21T13:16:41;101040.25;;;17.05;50.27
31299;BME280;17927;52.350;13.402;2023-02-21T13:19:09;101039.91;;;17.09;49.90
31299;BME280;17927;52.350;13.402;2023-02-21T13:21:50;101039.56;;;17.12;49.89
31299;BME280;17927;52.350;13.402;2023-02-21T13:25:00;101024.03;;;17.12;49.77
31299;BME280;17927;52.350;13.402;2023-02-21T13:27:56;101040.56;;;17.11;49.60
31299;BME280;17927;52.350;13.402;2023-02-21T13:32:58;101031.38;;;17.12;49.57
31299;BME280;17927;52.350;13.402;2023-02-21T13:37:53;101033.25;;;17.11;49.24
31299;BME280;17927;52.350;13.402;2023-02-21T13:43:29;101023.72;;;17.07;49.15
31299;BME280;17927;52.350;13.402;2023-02-21T13:46:25;101023.03;;;17.05;48.71
31299;BME280;17927;52.350;13.402;2023-02-21T13:57:37;101029.91;;;16.93;49.24
31299;BME280;17927;52.350;13.402;2023-02-21T14:02:56;101023.09;;;16.88;48.97
31299;BME280;17927;52.350;13.402;2023-02-21T14:05:24;101026.84;;;16.87;49.03
31299;BME280;17927;52.350;13.402;2023-02-21T14:07:59;101031.47;;;16.87;49.04
31299;BME280;17927;52.350;13.402;2023-02-21T14:10:30;101036.25;;;16.85;49.49
31299;BME280;17927;52.350;13.402;2023-02-21T14:13:00;101017.31;;;16.83;49.39
31299;BME280;17927;52.350;13.402;2023-02-21T14:15:40;101031.97;;;16.82;49.31
31299;BME280;17927;52.350;13.402;2023-02-21T14:18:14;101019.75;;;16.78;49.46
31299;BME280;17927;52.350;13.402;2023-02-21T14:20:40;101028.97;;;16.77;49.33
31299;BME280;17927;52.350;13.402;2023-02-21T14:23:06;101037.50;;;16.74;49.18
31299;BME280;17927;52.350;13.402;2023-02-21T14:25:33;101026.25;;;16.69;49.30